Flight Track Log - Related Links

Times and Time Zones

All times are in EDT time to prevent confusion due to time zone crossing. See the RAX1022 flight status page for this flight to view local times or setup timezone preferences in your user account.

Time Position Orientation Groundspeed Altitude Reporting Facility
EDT Latitude Longitude Course Direction KTS MPH feet Rate Location/Type
Thu 03:50:40 AM 39.7167 -86.3167 201° Southwest 113 130 1,200  Level Indianapolis TRACON
Thu 03:51:46 AM 39.6833 -86.3333 201° Southwest 115 132 2,400 1,048 Climbing Indianapolis TRACON
Thu 03:52:46 AM 39.6500 -86.3500 201° Southwest 119 137 3,400 950 Climbing Indianapolis TRACON
Thu 03:53:46 AM 39.6167 -86.3667 201° Southwest 125 144 4,300 966 Climbing Indianapolis TRACON
Thu 03:54:13 AM 39.6108 -86.3831 245° Southwest 119 137 4,800 966 Climbing Indianapolis Center
Thu 03:55:13 AM 39.5811 -86.4039 208° Southwest 122 140 5,700 600 Climbing Indianapolis Center
Thu 03:56:13 AM 39.5492 -86.4306 213° Southwest 130 150 6,000 149 Climbing Indianapolis Center
Thu 03:57:14 AM 39.5072 -86.4644 212° Southwest 166 191 6,000  Level Indianapolis Center
Thu 03:58:14 AM 39.4653 -86.4964 210° Southwest 174 200 6,000 -50 Level Indianapolis Center
Thu 03:59:14 AM 39.4242 -86.5344 216° Southwest 180 207 5,900 -50 Descending Indianapolis Center
Thu 04:00:14 AM 39.3844 -86.5733 217° Southwest 180 207 5,900  Level Indianapolis Center
Thu 04:01:15 AM 39.3400 -86.6044 208° Southwest 182 209 5,900  Level Indianapolis Center
Thu 04:02:15 AM 39.2953 -86.6331 206° Southwest 180 207 5,900  Level Indianapolis Center
Thu 04:03:15 AM 39.2517 -86.6633 208° Southwest 180 207 5,900  Level Indianapolis Center
Thu 04:04:15 AM 39.2081 -86.6939 208° Southwest 178 205 5,900  Level Indianapolis Center
Thu 04:05:16 AM 39.1631 -86.7231 207° Southwest 179 206 5,900  Level Indianapolis Center
Thu 04:06:16 AM 39.1144 -86.7569 208° Southwest 180 207 5,900  Level Indianapolis Center
Thu 04:07:16 AM 39.0706 -86.7883 209° Southwest 179 206 5,900  Level Indianapolis Center
Thu 04:08:17 AM 39.0264 -86.8186 208° Southwest 180 207 5,900  Level Indianapolis Center
Thu 04:09:17 AM 38.9828 -86.8503 209° Southwest 180 207 5,900  Level Indianapolis Center
Thu 04:10:17 AM 38.9389 -86.8811 209° Southwest 179 206 5,900  Level Indianapolis Center
Thu 04:11:18 AM 38.8956 -86.9122 209° Southwest 179 206 5,900 50 Level Indianapolis Center
Thu 04:12:18 AM 38.8525 -86.9447 210° Southwest 179 206 6,000 50 Climbing Indianapolis Center
Thu 04:13:18 AM 38.8089 -86.9764 210° Southwest 179 206 6,000  Level Indianapolis Center
Thu 04:14:18 AM 38.7653 -87.0083 210° Southwest 180 207 6,000  Level Indianapolis Center
Thu 04:15:19 AM 38.7214 -87.0403 210° Southwest 181 208 6,000  Level Indianapolis Center
Thu 04:16:19 AM 38.6778 -87.0719 210° Southwest 180 207 6,000  Level Indianapolis Center
Thu 04:17:20 AM 38.6333 -87.1033 209° Southwest 181 208 6,000  Level Indianapolis Center
Thu 04:18:20 AM 38.5906 -87.1344 210° Southwest 178 205 6,000  Level Indianapolis Center
Thu 04:19:20 AM 38.5469 -87.1658 209° Southwest 179 206 6,000  Level Indianapolis Center
Thu 04:20:21 AM 38.5042 -87.1972 210° Southwest 178 205 6,000 -99 Level Indianapolis Center
Thu 04:21:21 AM 38.4606 -87.2286 209° Southwest 180 207 5,800 -300 Descending Indianapolis Center
Thu 04:22:21 AM 38.4164 -87.2644 212° Southwest 186 214 5,400 -496 Descending Indianapolis Center
Thu 04:23:22 AM 38.3697 -87.2997 211° Southwest 193 222 4,800 -694 Descending Indianapolis Center
Thu 04:24:22 AM 38.3231 -87.3350 211° Southwest 195 224 4,000 -694 Descending Indianapolis Center
Thu 04:25:23 AM 38.2769 -87.3633 206° Southwest 191 220 3,400 -496 Descending Indianapolis Center
Thu 04:26:23 AM 38.2331 -87.3900 206° Southwest 183 211 3,000 -400 Descending Indianapolis Center
Thu 04:27:23 AM 38.1900 -87.4150 205° Southwest 176 203 2,600 -400 Descending Indianapolis Center

Login

Don't have an account? Register now (free) for customized features, flight alerts, and more!